createdAt,value
2019-06-26T00:00:55.488Z,5.35
2019-06-26T00:03:25.779Z,5.67
2019-06-26T00:05:56.068Z,5.22
2019-06-26T00:08:26.410Z,5.10
2019-06-26T00:10:56.765Z,5.35
2019-06-26T00:13:27.194Z,5.58
2019-06-26T00:15:57.663Z,5.72
2019-06-26T00:18:28.149Z,5.20
2019-06-26T00:20:58.520Z,5.35
2019-06-26T00:23:28.946Z,5.35
2019-06-26T00:25:59.202Z,4.92
2019-06-26T00:28:29.532Z,5.33
2019-06-26T00:30:59.781Z,4.75
2019-06-26T00:33:30.149Z,5.50
2019-06-26T00:36:01.317Z,5.13
2019-06-26T00:38:31.521Z,5.92
2019-06-26T00:41:01.887Z,4.95
2019-06-26T00:43:41.826Z,5.28
2019-06-26T00:46:03.904Z,5.37
2019-06-26T00:48:34.156Z,5.55
2019-06-26T00:51:04.373Z,5.30
2019-06-26T00:53:34.550Z,5.20
2019-06-26T00:56:04.849Z,5.00
2019-06-26T00:58:37.194Z,5.50
2019-06-26T01:01:07.377Z,4.90
2019-06-26T01:03:37.637Z,5.08
2019-06-26T01:06:33.133Z,4.80
2019-06-26T01:09:04.770Z,5.00
2019-06-26T01:11:35.149Z,4.45
2019-06-26T01:14:16.268Z,5.00
2019-06-26T01:16:46.480Z,4.75
2019-06-26T01:19:16.693Z,5.28
2019-06-26T01:22:20.466Z,5.17
2019-06-26T01:24:50.749Z,4.83
2019-06-26T01:27:20.988Z,4.92
2019-06-26T01:30:19.825Z,4.92
2019-06-26T01:32:50.444Z,5.25
2019-06-26T01:35:20.769Z,4.92
2019-06-26T01:38:22.946Z,4.75
2019-06-26T01:40:53.112Z,4.95
2019-06-26T01:43:24.407Z,5.22
2019-06-26T01:45:58.113Z,4.92
2019-06-26T01:48:30.697Z,5.22
2019-06-26T01:51:00.931Z,4.60
2019-06-26T01:53:31.153Z,4.80
2019-06-26T01:56:01.500Z,5.12
2019-06-26T01:58:31.704Z,4.87
2019-06-26T02:01:03.170Z,5.00
2019-06-26T02:03:37.906Z,4.85
2019-06-26T02:06:08.122Z,5.78
2019-06-26T02:08:38.290Z,5.30
2019-06-26T02:11:17.264Z,5.42
2019-06-26T02:13:47.535Z,5.08
2019-06-26T02:16:17.750Z,4.90
2019-06-26T02:18:57.716Z,4.72
2019-06-26T02:21:41.885Z,4.78
2019-06-26T02:24:12.086Z,5.10
2019-06-26T02:26:42.355Z,5.53
2019-06-26T02:29:24.938Z,5.20
2019-06-26T02:34:24.492Z,4.78
2019-06-26T02:36:59.501Z,5.08
2019-06-26T02:39:29.763Z,5.03
2019-06-26T02:41:59.946Z,5.00
2019-06-26T02:44:52.391Z,5.42
2019-06-26T02:47:19.550Z,5.12
2019-06-26T02:50:11.736Z,5.35
2019-06-26T02:52:42.015Z,5.10
2019-06-26T02:55:33.511Z,5.47
2019-06-26T02:58:03.801Z,5.22
2019-06-26T03:00:34.012Z,4.62
2019-06-26T03:03:05.281Z,5.53
2019-06-26T03:05:36.507Z,5.28
2019-06-26T03:08:06.684Z,5.30
2019-06-26T03:11:11.773Z,6.47
2019-06-26T03:13:41.943Z,4.87
2019-06-26T03:16:12.613Z,5.17
2019-06-26T03:19:01.235Z,5.87
2019-06-26T03:21:31.421Z,5.45
2019-06-26T03:24:14.507Z,5.60
2019-06-26T03:26:44.759Z,4.60
2019-06-26T03:32:29.127Z,6.28
2019-06-26T03:34:59.682Z,6.55
2019-06-26T03:37:30.068Z,5.60
2019-06-26T03:40:01.625Z,5.42
2019-06-26T03:42:32.517Z,6.42
2019-06-26T03:45:03.277Z,5.62
2019-06-26T03:47:34.544Z,6.00
2019-06-26T03:50:06.690Z,5.95
2019-06-26T03:52:37.040Z,5.97
2019-06-26T03:55:07.373Z,5.72
2019-06-26T03:57:37.693Z,6.37
2019-06-26T04:00:10.067Z,6.78
2019-06-26T04:02:40.688Z,6.10
2019-06-26T04:05:10.973Z,5.83
2019-06-26T04:07:42.558Z,5.22
2019-06-26T04:10:12.784Z,4.72
2019-06-26T04:12:43.052Z,5.35
2019-06-26T04:15:13.608Z,5.10
2019-06-26T04:17:43.865Z,5.12
2019-06-26T04:20:14.591Z,5.03
2019-06-26T04:22:47.555Z,5.75
2019-06-26T04:25:17.168Z,5.20
2019-06-26T04:27:47.351Z,5.08
2019-06-26T04:30:17.929Z,4.67
2019-06-26T04:32:48.145Z,5.25
2019-06-26T04:35:18.423Z,5.03
2019-06-26T04:37:48.600Z,5.22
2019-06-26T04:40:20.550Z,5.92
2019-06-26T04:42:50.887Z,5.30
2019-06-26T04:45:21.170Z,5.97
2019-06-26T04:47:51.420Z,5.53
2019-06-26T04:50:21.596Z,5.28
2019-06-26T04:52:51.808Z,5.60
2019-06-26T04:55:22.243Z,5.22
2019-06-26T04:57:52.456Z,5.08
2019-06-26T05:00:23.347Z,5.10
2019-06-26T05:02:53.563Z,5.40
2019-06-26T05:05:38.602Z,5.10
2019-06-26T05:10:25.187Z,5.40
2019-06-26T05:12:55.718Z,4.80
2019-06-26T05:15:25.991Z,5.45
2019-06-26T05:17:56.213Z,5.33
2019-06-26T05:20:26.449Z,5.65
2019-06-26T05:22:56.659Z,5.33
2019-06-26T05:25:26.962Z,6.12
2019-06-26T05:27:57.231Z,6.30
2019-06-26T05:30:30.708Z,5.45
2019-06-26T05:33:00.951Z,5.75
2019-06-26T05:35:34.761Z,5.78
2019-06-26T05:38:03.042Z,6.87
2019-06-26T05:40:33.324Z,6.20
2019-06-26T05:43:03.510Z,5.05
2019-06-26T05:45:34.079Z,4.95
2019-06-26T05:48:04.484Z,6.65
2019-06-26T05:50:34.712Z,5.17
2019-06-26T05:53:05.052Z,7.75
2019-06-26T05:55:35.340Z,5.87
2019-06-26T05:58:07.245Z,6.45
2019-06-26T06:00:39.828Z,6.30
2019-06-26T06:03:10.367Z,6.40
2019-06-26T06:05:40.596Z,6.03
2019-06-26T06:08:10.851Z,5.42
2019-06-26T06:10:42.787Z,6.00
2019-06-26T06:13:13.035Z,5.95
2019-06-26T06:15:43.343Z,5.33
2019-06-26T06:18:13.604Z,5.80
2019-06-26T06:20:43.898Z,5.50
2019-06-26T06:23:14.115Z,5.35
2019-06-26T06:25:44.454Z,5.15
2019-06-26T06:28:15.773Z,6.30
2019-06-26T06:30:46.135Z,5.90
2019-06-26T06:33:16.417Z,5.65
2019-06-26T06:35:46.607Z,5.47
2019-06-26T06:38:18.314Z,5.47
2019-06-26T06:40:48.542Z,5.30
2019-06-26T06:43:22.750Z,5.55
2019-06-26T06:45:52.932Z,5.90
2019-06-26T06:48:23.109Z,5.33
2019-06-26T06:50:56.397Z,5.67
2019-06-26T06:53:26.589Z,5.80
2019-06-26T06:56:04.239Z,5.45
2019-06-26T06:58:34.800Z,8.58
2019-06-26T07:01:09.118Z,7.08
2019-06-26T07:03:39.409Z,5.70
2019-06-26T07:06:10.576Z,5.80
2019-06-26T07:08:42.028Z,7.08
2019-06-26T07:11:12.408Z,6.72
2019-06-26T07:13:42.674Z,5.83
2019-06-26T07:16:13.590Z,5.87
2019-06-26T07:18:43.814Z,6.30
2019-06-26T07:21:14.440Z,6.17
2019-06-26T07:24:03.514Z,6.03
2019-06-26T07:26:33.833Z,5.55
2019-06-26T07:29:08.359Z,5.65
2019-06-26T07:31:38.695Z,5.92
2019-06-26T07:34:11.051Z,6.35
2019-06-26T07:36:42.707Z,5.70
2019-06-26T07:39:16.240Z,5.80
2019-06-26T07:41:46.523Z,6.12
2019-06-26T07:44:16.730Z,7.03
2019-06-26T07:46:47.016Z,6.15
2019-06-26T07:49:17.292Z,6.50
2019-06-26T07:51:47.564Z,7.28
2019-06-26T07:54:18.757Z,6.08
2019-06-26T07:56:48.904Z,5.73
2019-06-26T07:59:21.177Z,8.98
2019-06-26T08:01:51.453Z,6.80
2019-06-26T08:04:21.733Z,6.80
2019-06-26T08:06:51.907Z,6.50
2019-06-26T08:09:22.172Z,5.95
2019-06-26T08:11:52.441Z,5.95
2019-06-26T08:14:26.808Z,5.87
2019-06-26T08:16:57.149Z,6.70
2019-06-26T08:19:28.512Z,7.10
2019-06-26T08:21:58.770Z,6.95
2019-06-26T08:24:31.082Z,6.95
2019-06-26T08:27:01.314Z,6.90
2019-06-26T08:29:38.819Z,6.92
2019-06-26T08:32:09.214Z,7.10
2019-06-26T08:34:43.599Z,6.90
2019-06-26T08:37:17.852Z,6.90
2019-06-26T08:39:48.013Z,7.42
2019-06-26T08:42:18.236Z,7.53
2019-06-26T08:44:48.437Z,7.53
2019-06-26T08:47:27.913Z,7.60
2019-06-26T08:49:58.228Z,8.00
2019-06-26T08:52:28.454Z,7.20
2019-06-26T08:54:58.685Z,7.87
2019-06-26T08:57:28.907Z,6.97
2019-06-26T08:59:59.249Z,7.33
2019-06-26T09:02:29.669Z,7.30
2019-06-26T09:04:59.767Z,7.17
2019-06-26T09:07:29.457Z,7.25
2019-06-26T09:09:59.157Z,7.90
2019-06-26T09:12:29.194Z,7.78
2019-06-26T09:14:58.895Z,7.83
2019-06-26T09:17:29.610Z,7.25
2019-06-26T09:19:59.298Z,8.55
2019-06-26T09:22:28.969Z,7.08
2019-06-26T09:24:58.752Z,7.35
2019-06-26T09:27:29.384Z,7.40
2019-06-26T09:29:59.017Z,7.67
2019-06-26T09:32:28.633Z,7.70
2019-06-26T09:34:58.356Z,7.65
2019-06-26T09:37:28.080Z,8.50
2019-06-26T09:39:59.829Z,7.97
2019-06-26T09:42:29.454Z,8.85
2019-06-26T09:45:03.045Z,8.15
2019-06-26T09:47:32.735Z,8.43
2019-06-26T09:50:02.586Z,8.10
2019-06-26T09:52:32.299Z,8.68
2019-06-26T09:55:06.380Z,8.30
2019-06-26T09:57:36.038Z,8.10
2019-06-26T10:00:07.330Z,8.15
2019-06-26T10:02:39.489Z,8.15
2019-06-26T10:05:09.473Z,7.67
2019-06-26T10:07:42.174Z,8.25
2019-06-26T10:10:12.275Z,8.08
2019-06-26T10:12:46.395Z,7.35
2019-06-26T10:15:17.087Z,7.65
2019-06-26T10:17:46.761Z,8.10
2019-06-26T10:20:16.712Z,8.48
2019-06-26T10:22:46.652Z,7.87
2019-06-26T10:25:16.303Z,8.00
2019-06-26T10:27:46.153Z,7.42
2019-06-26T10:30:16.632Z,6.62
2019-06-26T10:32:49.346Z,7.65
2019-06-26T10:35:19.449Z,7.83
2019-06-26T10:37:49.283Z,7.30
2019-06-26T10:40:19.302Z,7.10
2019-06-26T10:42:50.163Z,7.83
2019-06-26T10:45:20.737Z,7.08
2019-06-26T10:47:52.505Z,6.95
2019-06-26T10:52:57.940Z,7.20
2019-06-26T10:55:28.138Z,6.87
2019-06-26T10:58:00.124Z,6.95
2019-06-26T11:00:30.199Z,6.50
2019-06-26T11:03:14.160Z,7.45
2019-06-26T11:05:43.973Z,6.78
2019-06-26T11:08:16.504Z,7.17
2019-06-26T11:10:51.619Z,6.78
2019-06-26T11:13:21.281Z,6.83
2019-06-26T11:15:52.043Z,6.90
2019-06-26T11:18:22.259Z,7.03
2019-06-26T11:20:51.992Z,7.60
2019-06-26T11:23:21.646Z,7.47
2019-06-26T11:25:55.362Z,7.20
2019-06-26T11:28:24.964Z,6.92
2019-06-26T11:30:59.930Z,6.60
2019-06-26T11:33:29.671Z,6.78
2019-06-26T11:35:59.442Z,6.78
2019-06-26T11:38:29.194Z,6.58
2019-06-26T11:41:01.851Z,6.62
2019-06-26T11:43:33.652Z,6.95
2019-06-26T11:46:03.355Z,6.03
2019-06-26T11:48:34.047Z,5.92
2019-06-26T11:51:03.923Z,6.65
2019-06-26T11:53:38.836Z,6.43
2019-06-26T11:56:08.752Z,5.90
2019-06-26T11:58:38.474Z,6.00
2019-06-26T12:01:08.218Z,7.25
2019-06-26T12:03:41.797Z,7.10
2019-06-26T12:06:18.615Z,6.80
2019-06-26T12:08:46.688Z,6.28
2019-06-26T12:11:16.316Z,6.15
2019-06-26T12:13:46.148Z,5.60
2019-06-26T12:16:15.840Z,6.03
2019-06-26T12:18:45.468Z,5.75
2019-06-26T12:21:15.301Z,5.58
2019-06-26T12:23:45.128Z,6.42
2019-06-26T12:26:14.848Z,5.47
2019-06-26T12:28:56.474Z,5.60
2019-06-26T12:31:26.470Z,5.17
2019-06-26T12:34:05.225Z,5.00
2019-06-26T12:36:34.911Z,5.90
2019-06-26T12:39:06.330Z,5.50
2019-06-26T12:41:37.139Z,5.30
2019-06-26T12:44:06.733Z,6.35
2019-06-26T12:46:36.949Z,5.17
2019-06-26T12:49:07.659Z,5.65
2019-06-26T12:51:37.406Z,4.60
2019-06-26T12:54:09.081Z,5.10
2019-06-26T12:59:07.442Z,5.60
2019-06-26T13:01:37.147Z,4.90
2019-06-26T13:04:07.939Z,4.30
2019-06-26T13:06:37.596Z,5.05
2019-06-26T13:09:09.706Z,5.47
2019-06-26T13:11:39.733Z,5.12
2019-06-26T13:14:11.790Z,5.17
2019-06-26T13:16:42.527Z,5.22
2019-06-26T13:19:12.113Z,4.62
2019-06-26T13:21:43.184Z,4.95
2019-06-26T13:24:14.028Z,5.85
2019-06-26T13:26:43.688Z,4.55
2019-06-26T13:29:15.931Z,4.62
2019-06-26T13:31:45.591Z,5.10
2019-06-26T13:34:18.586Z,5.70
2019-06-26T13:36:48.310Z,5.22
2019-06-26T13:39:21.636Z,4.85
2019-06-26T13:41:51.331Z,4.75
2019-06-26T13:44:22.282Z,5.50
2019-06-26T13:46:52.305Z,4.97
2019-06-26T13:49:22.924Z,4.70
2019-06-26T13:51:52.660Z,4.50
2019-06-26T13:54:24.339Z,5.07
2019-06-26T13:56:54.041Z,4.72
2019-06-26T13:59:23.842Z,3.95
2019-06-26T14:01:53.536Z,5.22
2019-06-26T14:04:24.613Z,5.05
2019-06-26T14:06:54.480Z,4.95
2019-06-26T14:09:24.169Z,4.58
2019-06-26T14:11:54.105Z,4.80
2019-06-26T14:14:41.142Z,5.90
2019-06-26T14:19:26.755Z,5.97
2019-06-26T14:21:55.395Z,3.80
2019-06-26T14:24:27.182Z,3.87
2019-06-26T14:26:56.843Z,5.17
2019-06-26T14:29:27.559Z,4.33
2019-06-26T14:31:57.264Z,4.42
2019-06-26T14:34:27.933Z,4.90
2019-06-26T14:36:57.828Z,4.47
2019-06-26T14:39:27.557Z,4.15
2019-06-26T14:41:57.227Z,4.42
2019-06-26T14:44:26.916Z,4.78
2019-06-26T14:46:57.925Z,3.77
2019-06-26T14:49:27.995Z,4.72
2019-06-26T14:51:57.627Z,4.37
2019-06-26T14:54:27.419Z,3.70
2019-06-26T14:56:57.413Z,4.12
2019-06-26T14:59:27.141Z,4.58
2019-06-26T15:01:56.857Z,3.90
2019-06-26T15:04:26.577Z,3.58
2019-06-26T15:06:56.241Z,4.75
2019-06-26T15:09:26.298Z,4.62
2019-06-26T15:11:56.318Z,4.20
2019-06-26T15:14:26.979Z,3.95
2019-06-26T15:16:57.772Z,4.73
2019-06-26T15:19:27.577Z,4.47
2019-06-26T15:21:58.832Z,4.47
2019-06-26T15:24:29.790Z,4.83
2019-06-26T15:26:59.426Z,4.53
2019-06-26T15:29:29.164Z,4.60
2019-06-26T15:31:58.853Z,5.03
2019-06-26T15:34:28.577Z,4.62
2019-06-26T15:36:58.313Z,4.70
2019-06-26T15:39:29.115Z,4.58
2019-06-26T15:41:58.840Z,3.98
2019-06-26T15:44:28.761Z,5.92
2019-06-26T15:47:02.322Z,4.85
2019-06-26T15:49:32.915Z,4.70
2019-06-26T15:52:14.430Z,5.10
2019-06-26T15:54:34.351Z,4.58
2019-06-26T15:57:05.045Z,4.30
2019-06-26T15:59:34.699Z,4.57
2019-06-26T16:02:11.571Z,4.58
2019-06-26T16:04:41.290Z,5.00
2019-06-26T16:07:14.987Z,5.10
2019-06-26T16:09:44.696Z,4.90
2019-06-26T16:12:14.293Z,5.08
2019-06-26T16:14:43.934Z,4.55
2019-06-26T16:17:19.245Z,4.92
2019-06-26T16:19:48.972Z,4.47
2019-06-26T16:22:31.748Z,4.35
2019-06-26T16:24:51.074Z,4.72
2019-06-26T16:27:24.861Z,4.85
2019-06-26T16:29:54.553Z,5.37
2019-06-26T16:32:25.349Z,4.78
2019-06-26T16:34:55.719Z,5.40
2019-06-26T16:37:34.586Z,4.42
2019-06-26T16:40:05.893Z,4.65
2019-06-26T16:42:35.595Z,4.70
2019-06-26T16:45:13.872Z,4.95
2019-06-26T16:47:43.761Z,5.25
2019-06-26T16:50:13.696Z,5.85
2019-06-26T16:52:57.379Z,5.37
2019-06-26T16:55:29.212Z,5.87
2019-06-26T16:58:16.947Z,5.37
2019-06-26T17:00:47.598Z,6.40
2019-06-26T17:03:17.484Z,8.10
2019-06-26T17:05:47.176Z,7.25
2019-06-26T17:08:20.950Z,6.40
2019-06-26T17:18:38.746Z,5.60
2019-06-26T17:21:09.062Z,5.70
2019-06-26T17:23:39.366Z,5.70
2019-06-26T17:26:09.651Z,8.30
2019-06-26T17:28:40.179Z,6.62
2019-06-26T17:31:10.473Z,5.80
2019-06-26T17:33:40.989Z,6.00
2019-06-26T17:36:12.284Z,5.90
2019-06-26T17:38:42.577Z,5.80
2019-06-26T17:41:13.109Z,5.90
2019-06-26T17:43:45.480Z,6.05
2019-06-26T17:46:15.669Z,6.10
2019-06-26T17:48:45.884Z,5.35
2019-06-26T17:51:16.180Z,5.83
2019-06-26T17:53:46.479Z,6.17
2019-06-26T17:56:16.765Z,5.65
2019-06-26T17:58:47.017Z,6.42
2019-06-26T18:01:17.253Z,5.58
2019-06-26T18:03:47.530Z,6.50
2019-06-26T18:06:17.849Z,6.37
2019-06-26T18:08:50.739Z,6.37
2019-06-26T18:11:21.030Z,6.20
2019-06-26T18:13:52.783Z,6.03
2019-06-26T18:16:27.210Z,6.05
2019-06-26T18:18:57.719Z,6.42
2019-06-26T18:21:31.287Z,6.70
2019-06-26T18:24:01.545Z,6.62
2019-06-26T18:26:31.937Z,6.90
2019-06-26T18:29:02.206Z,6.85
2019-06-26T18:31:32.548Z,5.78
2019-06-26T18:34:02.779Z,6.70
2019-06-26T18:36:33.753Z,6.25
2019-06-26T18:39:05.630Z,6.78
2019-06-26T18:41:35.902Z,6.35
2019-06-26T18:44:06.492Z,6.65
2019-06-26T18:46:39.508Z,5.65
2019-06-26T18:49:09.841Z,6.50
2019-06-26T18:51:40.110Z,6.50
2019-06-26T18:54:10.395Z,7.08
2019-06-26T18:56:40.677Z,6.42
2019-06-26T18:59:11.018Z,6.47
2019-06-26T19:01:41.309Z,6.40
2019-06-26T19:04:11.673Z,6.72
2019-06-26T19:06:41.965Z,6.55
2019-06-26T19:09:12.423Z,6.62
2019-06-26T19:11:42.681Z,6.35
2019-06-26T19:14:14.100Z,6.55
2019-06-26T19:16:44.516Z,6.90
2019-06-26T19:19:14.798Z,6.40
2019-06-26T19:21:46.133Z,6.70
2019-06-26T19:24:16.459Z,5.95
2019-06-26T19:26:46.766Z,6.40
2019-06-26T19:29:17.052Z,5.58
2019-06-26T19:31:47.342Z,6.00
2019-06-26T19:34:17.957Z,6.28
2019-06-26T19:36:50.309Z,6.85
2019-06-26T19:39:21.380Z,6.75
2019-06-26T19:41:51.633Z,6.58
2019-06-26T19:44:21.925Z,6.42
2019-06-26T19:46:52.147Z,6.62
2019-06-26T19:49:22.450Z,7.30
2019-06-26T19:51:52.664Z,6.83
2019-06-26T19:54:27.672Z,6.65
2019-06-26T19:56:54.904Z,7.12
2019-06-26T19:59:27.258Z,6.58
2019-06-26T20:01:57.517Z,6.33
2019-06-26T20:10:05.250Z,6.45
2019-06-26T20:12:35.492Z,7.47
2019-06-26T20:15:07.620Z,6.90
2019-06-26T20:20:10.301Z,7.60
2019-06-26T20:22:40.685Z,7.10
2019-06-26T20:25:12.365Z,7.45
2019-06-26T20:27:42.739Z,7.37
2019-06-26T20:30:14.038Z,7.80
2019-06-26T20:32:44.353Z,7.40
2019-06-26T20:35:14.620Z,8.20
2019-06-26T20:37:44.946Z,7.70
2019-06-26T20:40:15.230Z,7.95
2019-06-26T20:42:45.500Z,8.13
2019-06-26T20:45:16.205Z,8.08
2019-06-26T20:47:46.447Z,7.67
2019-06-26T20:50:16.837Z,7.45
2019-06-26T20:52:47.155Z,7.37
2019-06-26T20:55:17.571Z,8.05
2019-06-26T20:57:47.804Z,10.35
2019-06-26T21:00:21.381Z,11.90
2019-06-26T21:02:53.865Z,9.95
2019-06-26T21:05:22.005Z,9.08
2019-06-26T21:07:52.311Z,7.67
2019-06-26T21:10:22.595Z,8.15
2019-06-26T21:12:53.002Z,8.33
2019-06-26T21:15:23.411Z,7.85
2019-06-26T21:17:54.010Z,8.28
2019-06-26T21:20:24.457Z,8.63
2019-06-26T21:22:54.757Z,9.10
2019-06-26T21:25:25.352Z,10.03
2019-06-26T21:27:55.673Z,10.75
2019-06-26T21:30:27.391Z,9.78
2019-06-26T21:32:57.737Z,9.65
2019-06-26T21:35:28.051Z,10.23
2019-06-26T21:37:58.302Z,9.38
2019-06-26T21:40:28.616Z,9.03
2019-06-26T21:42:58.867Z,9.85
2019-06-26T21:45:29.243Z,9.60
2019-06-26T21:47:59.550Z,9.65
2019-06-26T21:53:17.927Z,11.68
2019-06-26T21:56:06.284Z,11.10
2019-06-26T21:58:54.293Z,8.85
2019-06-26T22:01:42.217Z,8.65
2019-06-26T22:04:30.329Z,8.78
2019-06-26T22:07:14.215Z,7.83
2019-06-26T22:10:06.614Z,7.80
2019-06-26T22:12:38.455Z,9.48
2019-06-26T22:15:09.703Z,10.50
2019-06-26T22:17:41.690Z,10.78
2019-06-26T22:20:13.075Z,10.20
2019-06-26T22:22:43.412Z,9.83
2019-06-26T22:25:14.173Z,9.95
2019-06-26T22:27:44.382Z,11.30
2019-06-26T22:30:15.414Z,9.73
2019-06-26T22:32:46.676Z,8.48
2019-06-26T22:35:16.960Z,8.47
2019-06-26T22:37:47.137Z,8.65
2019-06-26T22:40:17.488Z,12.85
2019-06-26T22:42:47.736Z,9.10
2019-06-26T22:45:19.185Z,10.35
2019-06-26T22:47:49.368Z,10.98
2019-06-26T22:50:19.892Z,9.93
2019-06-26T22:52:50.184Z,10.50
2019-06-26T22:55:20.734Z,10.53
2019-06-26T22:57:50.964Z,12.68
2019-06-26T23:00:22.363Z,11.83
2019-06-26T23:02:52.594Z,10.00
2019-06-26T23:05:22.890Z,9.70
2019-06-26T23:07:53.181Z,9.03
2019-06-26T23:10:23.379Z,8.90
2019-06-26T23:12:53.695Z,8.70
2019-06-26T23:15:23.892Z,8.78
2019-06-26T23:17:54.507Z,8.68
2019-06-26T23:20:24.839Z,8.93
2019-06-26T23:22:55.058Z,8.90
2019-06-26T23:25:25.351Z,8.65
2019-06-26T23:27:55.593Z,8.25
2019-06-26T23:30:27.886Z,8.90
2019-06-26T23:32:58.081Z,8.65
2019-06-26T23:35:28.405Z,9.13
2019-06-26T23:37:58.604Z,8.43
2019-06-26T23:40:28.905Z,8.63
2019-06-26T23:43:00.311Z,8.93
2019-06-26T23:45:30.608Z,9.05
2019-06-26T23:48:01.210Z,8.63
2019-06-26T23:50:31.527Z,9.00
2019-06-26T23:53:02.910Z,8.55
2019-06-26T23:55:33.201Z,7.92
2019-06-26T23:58:03.465Z,8.70
